createdAt,value
2018-10-12T00:02:00.429Z,21.27
2018-10-12T00:04:29.772Z,22.37
2018-10-12T00:06:59.646Z,26.73
2018-10-12T00:09:28.843Z,23.27
2018-10-12T00:11:58.015Z,28.33
2018-10-12T00:14:27.370Z,25.90
2018-10-12T00:16:56.645Z,25.57
2018-10-12T00:19:25.706Z,24.30
2018-10-12T00:21:54.827Z,24.87
2018-10-12T00:24:24.057Z,26.30
2018-10-12T00:26:53.121Z,23.73
2018-10-12T00:29:22.729Z,24.17
2018-10-12T00:31:51.752Z,23.30
2018-10-12T00:34:21.199Z,24.90
2018-10-12T00:36:50.602Z,22.50
2018-10-12T00:39:20.256Z,23.83
2018-10-12T00:41:49.233Z,26.80
2018-10-12T00:44:18.373Z,22.07
2018-10-12T00:46:47.357Z,22.07
2018-10-12T00:49:16.324Z,22.50
2018-10-12T00:51:45.703Z,23.77
2018-10-12T00:54:14.756Z,22.97
2018-10-12T00:56:43.740Z,24.73
2018-10-12T00:59:12.945Z,19.83
2018-10-12T01:01:41.937Z,24.33
2018-10-12T01:04:11.260Z,21.10
2018-10-12T01:06:40.373Z,23.60
2018-10-12T01:09:09.392Z,22.27
2018-10-12T01:11:38.264Z,21.13
2018-10-12T01:14:07.405Z,19.70
2018-10-12T01:16:36.409Z,19.70
2018-10-12T01:19:05.454Z,22.60
2018-10-12T01:21:34.855Z,21.70
2018-10-12T01:24:04.060Z,22.50
2018-10-12T01:26:33.164Z,23.03
2018-10-12T01:29:02.321Z,21.47
2018-10-12T01:31:31.393Z,19.20
2018-10-12T01:34:01.051Z,20.43
2018-10-12T01:36:30.095Z,22.00
2018-10-12T01:38:59.370Z,19.90
2018-10-12T01:41:28.423Z,21.10
2018-10-12T01:43:57.400Z,19.80
2018-10-12T01:46:26.398Z,25.90
2018-10-12T01:48:55.317Z,22.37
2018-10-12T01:51:24.601Z,19.37
2018-10-12T01:53:53.560Z,19.70
2018-10-12T01:56:23.211Z,23.43
2018-10-12T01:58:52.188Z,19.53
2018-10-12T02:01:21.372Z,21.80
2018-10-12T02:03:50.366Z,18.33
2018-10-12T02:06:19.366Z,18.90
2018-10-12T02:08:48.436Z,22.90
2018-10-12T02:11:17.455Z,22.27
2018-10-12T02:13:46.492Z,18.47
2018-10-12T02:16:15.377Z,19.57
2018-10-12T02:18:44.356Z,17.60
2018-10-12T02:21:13.498Z,22.13
2018-10-12T02:23:42.387Z,18.67
2018-10-12T02:26:11.446Z,21.13
2018-10-12T02:28:40.537Z,21.03
2018-10-12T02:31:09.545Z,18.93
2018-10-12T02:33:38.530Z,16.80
2018-10-12T02:36:07.613Z,18.47
2018-10-12T02:38:36.938Z,17.13
2018-10-12T02:41:08.714Z,15.83
2018-10-12T02:43:37.798Z,17.03
2018-10-12T02:46:06.851Z,17.73
2018-10-12T02:48:36.288Z,19.23
2018-10-12T02:51:05.225Z,17.97
2018-10-12T02:53:34.145Z,18.33
2018-10-12T02:56:03.684Z,14.77
2018-10-12T02:58:33.059Z,19.23
2018-10-12T03:01:02.787Z,19.07
2018-10-12T03:03:31.804Z,16.60
2018-10-12T03:06:00.941Z,18.53
2018-10-12T03:08:30.205Z,19.87
2018-10-12T03:10:59.739Z,17.47
2018-10-12T03:13:29.463Z,17.43
2018-10-12T03:15:58.492Z,16.37
2018-10-12T03:18:27.465Z,18.90
2018-10-12T03:20:56.468Z,15.33
2018-10-12T03:23:25.384Z,17.03
2018-10-12T03:25:54.370Z,16.33
2018-10-12T03:28:26.348Z,17.73
2018-10-12T03:30:55.355Z,15.50
2018-10-12T03:33:25.749Z,16.53
2018-10-12T03:35:54.806Z,15.60
2018-10-12T03:38:24.513Z,13.80
2018-10-12T03:40:53.495Z,17.73
2018-10-12T03:43:23.604Z,15.03
2018-10-12T03:45:52.794Z,15.53
2018-10-12T03:48:21.977Z,13.43
2018-10-12T03:50:51.019Z,13.23
2018-10-12T03:53:20.189Z,16.30
2018-10-12T03:55:49.209Z,17.23
2018-10-12T03:58:18.252Z,12.70
2018-10-12T04:00:47.687Z,15.07
2018-10-12T04:03:16.678Z,12.73
2018-10-12T04:05:45.636Z,15.03
2018-10-12T04:08:14.670Z,14.40
2018-10-12T04:10:43.694Z,15.60
2018-10-12T04:13:12.766Z,15.57
2018-10-12T04:15:41.770Z,16.63
2018-10-12T04:18:10.698Z,16.30
2018-10-12T04:20:39.615Z,17.67
2018-10-12T04:23:08.632Z,16.67
2018-10-12T04:25:37.562Z,16.80
2018-10-12T04:28:06.491Z,16.40
2018-10-12T04:30:35.702Z,15.40
2018-10-12T04:33:04.707Z,15.57
2018-10-12T04:35:33.684Z,13.93
2018-10-12T04:38:03.197Z,17.50
2018-10-12T04:41:13.381Z,19.60
2018-10-12T04:43:42.679Z,18.70
2018-10-12T04:46:14.225Z,16.80
2018-10-12T04:48:44.292Z,17.53
2018-10-12T04:51:22.572Z,19.43
2018-10-12T04:53:51.725Z,17.63
2018-10-12T04:56:21.722Z,16.97
2018-10-12T04:58:51.673Z,15.80
2018-10-12T05:01:21.062Z,16.67
2018-10-12T05:03:50.133Z,17.30
2018-10-12T05:06:19.079Z,16.67
2018-10-12T05:08:48.213Z,20.27
2018-10-12T05:11:17.326Z,19.03
2018-10-12T05:13:46.413Z,17.17
2018-10-12T05:16:15.520Z,21.23
2018-10-12T05:18:44.489Z,24.70
2018-10-12T05:21:13.395Z,20.40
2018-10-12T05:23:42.551Z,20.27
2018-10-12T05:26:11.450Z,20.27
2018-10-12T05:28:40.573Z,18.27
2018-10-12T05:31:09.767Z,20.30
2018-10-12T05:33:38.718Z,21.07
2018-10-12T05:36:07.845Z,20.73
2018-10-12T05:38:36.746Z,21.10
2018-10-12T05:41:05.778Z,21.53
2018-10-12T05:43:35.248Z,21.10
2018-10-12T05:46:04.782Z,22.67
2018-10-12T05:48:45.065Z,21.00
2018-10-12T05:51:15.290Z,21.57
2018-10-12T05:53:44.615Z,22.57
2018-10-12T05:56:17.804Z,24.70
2018-10-12T05:58:47.236Z,25.63
2018-10-12T06:01:16.424Z,23.03
2018-10-12T06:03:45.870Z,24.27
2018-10-12T06:06:14.920Z,21.23
2018-10-12T06:08:43.943Z,22.00
2018-10-12T06:11:13.428Z,21.00
2018-10-12T06:13:42.442Z,21.17
2018-10-12T06:16:11.483Z,23.17
2018-10-12T06:18:40.604Z,21.40
2018-10-12T06:21:09.596Z,24.00
2018-10-12T06:23:38.605Z,22.87
2018-10-12T06:26:07.666Z,22.90
2018-10-12T06:28:36.658Z,22.07
2018-10-12T06:31:06.027Z,23.60
2018-10-12T06:33:35.123Z,19.93
2018-10-12T06:36:04.114Z,25.90
2018-10-12T06:38:33.181Z,21.10
2018-10-12T06:41:02.472Z,23.23
2018-10-12T06:43:31.499Z,24.77
2018-10-12T06:46:00.728Z,21.00
2018-10-12T06:48:30.040Z,21.17
2018-10-12T06:50:59.612Z,22.03
2018-10-12T06:53:29.206Z,20.33
2018-10-12T06:55:59.640Z,23.33
2018-10-12T06:58:28.866Z,21.13
2018-10-12T07:00:59.305Z,24.57
2018-10-12T07:03:29.086Z,19.87
2018-10-12T07:05:59.101Z,19.93
2018-10-12T07:08:28.401Z,25.23
2018-10-12T07:10:58.265Z,22.87
2018-10-12T07:13:27.906Z,20.53
2018-10-12T07:15:56.796Z,25.20
2018-10-12T07:18:26.122Z,19.90
2018-10-12T07:20:55.115Z,21.13
2018-10-12T07:23:24.472Z,20.13
2018-10-12T07:25:53.581Z,21.40
2018-10-12T07:28:22.643Z,22.07
2018-10-12T07:30:51.642Z,22.73
2018-10-12T07:33:21.077Z,23.87
2018-10-12T07:35:49.913Z,18.43
2018-10-12T07:38:18.805Z,19.70
2018-10-12T07:40:48.049Z,19.33
2018-10-12T07:43:17.010Z,19.17
2018-10-12T07:45:46.209Z,19.93
2018-10-12T07:48:15.408Z,23.03
2018-10-12T07:50:44.376Z,20.97
2018-10-12T07:53:13.327Z,19.90
2018-10-12T07:55:42.465Z,19.80
2018-10-12T07:58:11.450Z,20.37
2018-10-12T08:00:40.459Z,21.03
2018-10-12T08:03:09.458Z,21.77
2018-10-12T08:05:38.410Z,22.90
2018-10-12T08:08:07.302Z,22.63
2018-10-12T08:10:36.546Z,20.47
2018-10-12T08:13:05.455Z,20.53
2018-10-12T08:15:34.527Z,26.73
2018-10-12T08:18:03.593Z,23.63
2018-10-12T08:20:32.784Z,24.57
2018-10-12T08:23:02.046Z,26.33
2018-10-12T08:25:31.397Z,21.60
2018-10-12T08:28:01.677Z,21.03
2018-10-12T08:30:31.605Z,24.43
2018-10-12T08:33:02.053Z,23.50
2018-10-12T08:35:31.218Z,24.50
2018-10-12T08:38:01.638Z,21.77
2018-10-12T08:40:31.031Z,25.83
2018-10-12T08:43:01.487Z,23.87
2018-10-12T08:45:30.898Z,27.60
2018-10-12T08:48:01.037Z,24.13
2018-10-12T08:50:30.531Z,23.57
2018-10-12T08:53:00.098Z,25.47
2018-10-12T08:55:29.858Z,24.63
2018-10-12T08:58:00.078Z,24.47
2018-10-12T09:00:29.463Z,25.17
2018-10-12T09:02:59.241Z,24.27
2018-10-12T09:05:29.008Z,24.90
2018-10-12T09:07:58.747Z,25.07
2018-10-12T09:10:29.341Z,27.43
2018-10-12T09:12:59.159Z,25.83
2018-10-12T09:15:28.447Z,27.63
2018-10-12T09:17:59.649Z,27.87
2018-10-12T09:20:29.498Z,27.37
2018-10-12T09:22:59.191Z,24.80
2018-10-12T09:25:29.073Z,26.50
2018-10-12T09:27:58.657Z,29.23
2018-10-12T09:30:28.116Z,27.27
2018-10-12T09:32:57.041Z,26.90
2018-10-12T09:35:26.096Z,28.60
2018-10-12T09:37:55.401Z,27.37
2018-10-12T09:40:24.425Z,26.97
2018-10-12T09:42:53.359Z,28.77
2018-10-12T09:45:22.580Z,27.40
2018-10-12T09:47:51.595Z,28.30
2018-10-12T09:50:20.708Z,30.03
2018-10-12T09:52:49.617Z,27.57
2018-10-12T09:55:18.549Z,28.80
2018-10-12T09:57:47.518Z,28.77
2018-10-12T10:00:22.050Z,24.30
2018-10-12T10:03:55.595Z,23.97
2018-10-12T10:06:24.873Z,27.17
2018-10-12T10:08:53.875Z,24.90
2018-10-12T10:11:22.887Z,26.50
2018-10-12T10:13:52.333Z,27.20
2018-10-12T10:16:21.374Z,23.67
2018-10-12T10:18:50.558Z,28.00
2018-10-12T10:21:19.806Z,24.53
2018-10-12T10:23:48.803Z,25.93
2018-10-12T10:26:17.863Z,24.37
2018-10-12T10:28:46.893Z,22.13
2018-10-12T10:31:15.929Z,24.77
2018-10-12T10:33:44.877Z,21.50
2018-10-12T10:36:14.160Z,20.90
2018-10-12T10:38:43.360Z,24.77
2018-10-12T10:41:12.363Z,25.63
2018-10-12T10:43:41.324Z,22.73
2018-10-12T10:46:10.303Z,21.43
2018-10-12T10:48:39.316Z,25.00
2018-10-12T10:51:08.572Z,23.13
2018-10-12T10:53:37.586Z,23.17
2018-10-12T10:56:06.574Z,22.83
2018-10-12T10:58:35.735Z,23.90
2018-10-12T11:01:04.876Z,23.60
2018-10-12T11:03:33.798Z,25.17
2018-10-12T11:06:02.698Z,20.50
2018-10-12T11:08:31.576Z,19.77
2018-10-12T11:11:01.570Z,22.97
2018-10-12T11:13:30.859Z,23.23
2018-10-12T11:16:00.280Z,27.53
2018-10-12T11:18:29.496Z,22.57
2018-10-12T11:20:59.100Z,22.30
2018-10-12T11:23:29.443Z,20.77
2018-10-12T11:25:58.773Z,22.93
2018-10-12T11:28:28.298Z,18.90
2018-10-12T11:30:58.801Z,22.53
2018-10-12T11:33:28.019Z,22.57
2018-10-12T11:35:56.976Z,22.03
2018-10-12T11:38:26.056Z,20.43
2018-10-12T11:40:55.231Z,24.63
2018-10-12T11:43:29.314Z,21.70
2018-10-12T11:45:59.479Z,22.20
2018-10-12T11:48:28.963Z,21.00
2018-10-12T11:51:00.152Z,20.53
2018-10-12T11:53:30.336Z,20.97
2018-10-12T11:56:00.463Z,22.23
2018-10-12T11:58:30.033Z,19.93
2018-10-12T12:00:59.589Z,20.57
2018-10-12T12:03:28.730Z,18.97
2018-10-12T12:05:58.797Z,19.43
2018-10-12T12:08:28.045Z,19.60
2018-10-12T12:10:57.300Z,19.70
2018-10-12T12:13:26.558Z,23.60
2018-10-12T12:15:55.460Z,21.90
2018-10-12T12:18:24.531Z,20.33
2018-10-12T12:20:53.490Z,19.50
2018-10-12T12:23:22.748Z,22.47
2018-10-12T12:25:51.723Z,20.97
2018-10-12T12:28:20.713Z,21.33
2018-10-12T12:30:49.692Z,20.90
2018-10-12T12:33:18.702Z,21.23
2018-10-12T12:35:47.907Z,18.93
2018-10-12T12:38:16.598Z,19.23
2018-10-12T12:40:45.604Z,22.30
2018-10-12T12:43:14.802Z,22.33
2018-10-12T12:45:43.893Z,19.27
2018-10-12T12:48:13.296Z,17.33
2018-10-12T12:50:42.064Z,19.27
2018-10-12T12:53:10.949Z,17.47
2018-10-12T12:55:39.892Z,16.73
2018-10-12T12:58:08.876Z,19.93
2018-10-12T13:00:37.961Z,19.97
2018-10-12T13:03:06.839Z,20.23
2018-10-12T13:05:35.834Z,20.47
2018-10-12T13:08:04.806Z,19.00
2018-10-12T13:10:33.749Z,16.87
2018-10-12T13:13:03.119Z,17.03
2018-10-12T13:15:32.141Z,18.10
2018-10-12T13:18:01.668Z,18.77
2018-10-12T13:20:31.983Z,20.87
2018-10-12T13:23:01.581Z,16.87
2018-10-12T13:25:30.951Z,19.53
2018-10-12T13:28:00.553Z,20.47
2018-10-12T13:30:29.765Z,17.53
2018-10-12T13:32:58.972Z,18.17
2018-10-12T13:35:28.341Z,19.30
2018-10-12T13:37:58.095Z,18.73
2018-10-12T13:40:27.385Z,16.40
2018-10-12T13:42:56.264Z,19.27
2018-10-12T13:45:25.500Z,21.00
2018-10-12T13:47:54.475Z,17.17
2018-10-12T13:50:23.493Z,20.13
2018-10-12T13:52:52.512Z,17.83
2018-10-12T13:55:21.568Z,17.50
2018-10-12T13:57:50.499Z,19.07
2018-10-12T14:00:20.294Z,17.07
2018-10-12T14:05:57.373Z,16.33
2018-10-12T14:08:26.517Z,16.13
2018-10-12T14:10:55.485Z,17.10
2018-10-12T14:13:24.495Z,18.43
2018-10-12T14:15:53.664Z,15.10
2018-10-12T14:18:22.668Z,17.27
2018-10-12T14:20:51.615Z,17.30
2018-10-12T14:23:23.541Z,18.73
2018-10-12T14:25:52.542Z,16.17
2018-10-12T14:28:21.512Z,17.93
2018-10-12T14:30:50.652Z,19.47
2018-10-12T14:33:20.637Z,15.67
2018-10-12T14:35:49.984Z,18.00
2018-10-12T14:38:19.072Z,18.90
2018-10-12T14:40:48.187Z,17.87
2018-10-12T14:43:17.187Z,17.77
2018-10-12T14:45:46.248Z,16.37
2018-10-12T14:48:15.284Z,18.40
2018-10-12T14:50:44.224Z,18.57
2018-10-12T14:53:13.385Z,16.30
2018-10-12T14:55:42.422Z,16.53
2018-10-12T14:58:11.381Z,17.50
2018-10-12T15:00:40.344Z,15.27
2018-10-12T15:03:09.367Z,14.77
2018-10-12T15:05:38.778Z,16.07
2018-10-12T15:08:08.507Z,16.37
2018-10-12T15:10:38.500Z,15.93
2018-10-12T15:13:07.764Z,19.77
2018-10-12T15:15:38.129Z,15.70
2018-10-12T15:18:07.118Z,18.63
2018-10-12T15:20:36.131Z,17.13
2018-10-12T15:23:05.528Z,17.87
2018-10-12T15:25:34.499Z,18.03
2018-10-12T15:28:03.537Z,15.70
2018-10-12T15:30:32.438Z,18.03
2018-10-12T15:33:01.427Z,18.50
2018-10-12T15:35:30.399Z,18.43
2018-10-12T15:37:59.379Z,16.50
2018-10-12T15:40:28.380Z,16.13
2018-10-12T15:42:57.562Z,17.37
2018-10-12T15:45:27.039Z,18.90
2018-10-12T15:47:56.943Z,16.57
2018-10-12T15:50:25.936Z,17.30
2018-10-12T15:52:55.058Z,15.97
2018-10-12T15:55:24.107Z,16.63
2018-10-12T15:57:53.080Z,16.90
2018-10-12T16:00:22.394Z,17.93
2018-10-12T16:02:51.330Z,18.73
2018-10-12T16:05:20.796Z,14.17
2018-10-12T16:07:50.097Z,17.80
2018-10-12T16:10:19.735Z,18.27
2018-10-12T16:12:48.828Z,17.90
2018-10-12T16:15:18.073Z,14.83
2018-10-12T16:17:47.396Z,16.97
2018-10-12T16:20:16.435Z,16.03
2018-10-12T16:22:45.356Z,17.67
2018-10-12T16:25:25.215Z,16.80
2018-10-12T16:27:54.167Z,15.90
2018-10-12T16:30:23.474Z,17.37
2018-10-12T16:32:52.460Z,17.93
2018-10-12T16:35:21.490Z,19.27
2018-10-12T16:37:50.748Z,20.97
2018-10-12T16:40:20.794Z,19.47
2018-10-12T16:42:50.015Z,16.23
2018-10-12T16:45:19.265Z,16.40
2018-10-12T16:47:48.602Z,18.27
2018-10-12T16:50:17.849Z,17.57
2018-10-12T16:52:46.943Z,18.43
2018-10-12T16:55:16.000Z,17.83
2018-10-12T16:57:45.143Z,16.87
2018-10-12T17:00:14.126Z,16.90
2018-10-12T17:02:43.116Z,18.77
2018-10-12T17:05:12.184Z,17.63
2018-10-12T17:07:42.969Z,19.10
2018-10-12T17:10:12.039Z,17.27
2018-10-12T17:12:41.132Z,16.17
2018-10-12T17:15:11.657Z,17.80
2018-10-12T17:17:40.813Z,19.67
2018-10-12T17:20:10.162Z,20.53
2018-10-12T17:22:39.711Z,19.63
2018-10-12T17:25:09.630Z,17.27
2018-10-12T17:27:39.330Z,16.60
2018-10-12T17:30:08.524Z,19.13
2018-10-12T17:32:38.589Z,20.27
2018-10-12T17:35:07.731Z,15.47
2018-10-12T17:37:36.886Z,15.83
2018-10-12T17:40:06.046Z,18.50
2018-10-12T17:45:14.190Z,20.77
2018-10-12T17:47:43.503Z,23.73
2018-10-12T17:50:12.484Z,16.73
2018-10-12T17:52:41.925Z,20.20
2018-10-12T17:55:11.501Z,19.90
2018-10-12T17:57:40.790Z,16.40
2018-10-12T18:00:10.824Z,18.47
2018-10-12T18:02:40.487Z,18.97
2018-10-12T18:05:09.774Z,20.23
2018-10-12T18:07:39.156Z,16.40
2018-10-12T18:10:09.581Z,17.77
2018-10-12T18:12:39.174Z,20.03
2018-10-12T18:15:10.558Z,18.10
2018-10-12T18:17:41.301Z,17.43
2018-10-12T18:20:11.247Z,20.67
2018-10-12T18:22:41.511Z,18.33
2018-10-12T18:25:10.755Z,20.07
2018-10-12T18:27:40.181Z,17.70
2018-10-12T18:30:09.500Z,20.17
2018-10-12T18:32:39.036Z,16.43
2018-10-12T18:35:08.481Z,20.57
2018-10-12T18:37:38.044Z,17.27
2018-10-12T18:40:07.116Z,21.93
2018-10-12T18:42:36.188Z,17.03
2018-10-12T18:45:05.788Z,17.83
2018-10-12T18:47:34.951Z,17.27
2018-10-12T18:50:03.995Z,15.57
2018-10-12T18:52:33.360Z,19.13
2018-10-12T18:55:02.643Z,16.37
2018-10-12T18:57:34.591Z,20.27
2018-10-12T19:00:05.244Z,16.60
2018-10-12T19:02:34.879Z,16.97
2018-10-12T19:05:04.468Z,18.50
2018-10-12T19:07:33.632Z,17.50
2018-10-12T19:10:02.793Z,16.93
2018-10-12T19:12:31.920Z,16.87
2018-10-12T19:15:01.053Z,20.50
2018-10-12T19:17:30.295Z,16.43
2018-10-12T19:19:59.353Z,15.93
2018-10-12T19:22:28.530Z,19.53
2018-10-12T19:24:58.271Z,18.17
2018-10-12T19:27:27.471Z,15.83
2018-10-12T19:29:56.944Z,18.13
2018-10-12T19:32:26.166Z,17.40
2018-10-12T19:34:55.266Z,15.97
2018-10-12T19:37:24.503Z,18.87
2018-10-12T19:39:53.565Z,14.80
2018-10-12T19:42:23.047Z,17.90
2018-10-12T19:44:52.324Z,18.80
2018-10-12T19:47:21.340Z,17.97
2018-10-12T19:49:50.842Z,16.97
2018-10-12T19:52:20.453Z,16.07
2018-10-12T19:54:49.912Z,15.70
2018-10-12T19:57:19.324Z,18.77
2018-10-12T19:59:48.566Z,18.57
2018-10-12T20:02:18.067Z,15.53
2018-10-12T20:04:48.484Z,17.57
2018-10-12T20:07:19.910Z,16.33
2018-10-12T20:09:49.268Z,17.33
2018-10-12T20:12:18.555Z,17.77
2018-10-12T20:14:47.613Z,16.30
2018-10-12T20:17:16.663Z,15.60
2018-10-12T20:19:45.992Z,19.70
2018-10-12T20:22:15.150Z,18.27
2018-10-12T20:24:44.141Z,15.53
2018-10-12T20:27:13.593Z,19.67
2018-10-12T20:29:42.562Z,18.63
2018-10-12T20:32:11.609Z,12.73
2018-10-12T20:34:42.491Z,18.00
2018-10-12T20:37:11.466Z,16.23
2018-10-12T20:39:40.957Z,17.63
2018-10-12T20:42:10.116Z,16.77
2018-10-12T20:44:39.787Z,16.80
2018-10-12T20:47:09.108Z,17.13
2018-10-12T20:49:38.960Z,14.77
2018-10-12T20:52:08.139Z,17.70
2018-10-12T20:54:37.059Z,17.13
2018-10-12T20:57:06.589Z,16.33
2018-10-12T20:59:35.537Z,18.03
2018-10-12T21:02:04.647Z,17.73
2018-10-12T21:04:33.852Z,15.73
2018-10-12T21:07:02.898Z,17.07
2018-10-12T21:09:31.975Z,19.07
2018-10-12T21:12:01.047Z,14.23
2018-10-12T21:14:30.019Z,18.00
2018-10-12T21:16:59.255Z,18.17
2018-10-12T21:19:28.244Z,16.93
2018-10-12T21:21:57.607Z,15.23
2018-10-12T21:24:26.582Z,17.87
2018-10-12T21:26:55.682Z,17.80
2018-10-12T21:29:24.693Z,17.63
2018-10-12T21:31:53.920Z,16.13
2018-10-12T21:34:23.109Z,14.53
2018-10-12T21:36:52.160Z,15.57
2018-10-12T21:39:22.022Z,15.97
2018-10-12T21:41:51.098Z,14.57
2018-10-12T21:44:21.268Z,17.70
2018-10-12T21:46:51.079Z,17.43
2018-10-12T21:49:20.328Z,17.00
2018-10-12T21:51:49.802Z,17.93
2018-10-12T21:54:19.033Z,15.27
2018-10-12T21:56:48.220Z,14.67
2018-10-12T21:59:17.475Z,16.20
2018-10-12T22:01:46.524Z,16.47
2018-10-12T22:04:15.550Z,16.07
2018-10-12T22:06:44.603Z,15.23
2018-10-12T22:09:13.614Z,16.50
2018-10-12T22:11:42.667Z,16.90
2018-10-12T22:14:11.690Z,17.37
2018-10-12T22:16:41.111Z,17.67
2018-10-12T22:19:10.400Z,15.97
2018-10-12T22:21:40.405Z,15.10
2018-10-12T22:24:09.599Z,13.07
2018-10-12T22:26:39.084Z,15.50
2018-10-12T22:29:08.034Z,18.57
2018-10-12T22:31:37.165Z,17.67
2018-10-12T22:34:06.446Z,15.13
2018-10-12T22:36:35.418Z,16.00
2018-10-12T22:39:05.539Z,14.37
2018-10-12T22:41:35.129Z,16.47
2018-10-12T22:44:04.063Z,15.97
2018-10-12T22:46:33.170Z,15.37
2018-10-12T22:49:02.407Z,15.67
2018-10-12T22:51:31.394Z,14.30
2018-10-12T22:54:00.417Z,18.70
2018-10-12T22:56:29.719Z,18.90
2018-10-12T22:58:58.672Z,17.57
2018-10-12T23:01:27.982Z,16.50
2018-10-12T23:03:57.096Z,16.67
2018-10-12T23:06:26.124Z,14.97
2018-10-12T23:08:55.137Z,17.07
2018-10-12T23:11:24.403Z,16.73
2018-10-12T23:13:53.410Z,14.30
2018-10-12T23:16:22.418Z,16.93
2018-10-12T23:18:51.404Z,16.17
2018-10-12T23:21:20.436Z,17.23
2018-10-12T23:23:50.043Z,15.30
2018-10-12T23:26:19.518Z,14.57
2018-10-12T23:28:48.558Z,16.90
2018-10-12T23:31:17.928Z,14.60
2018-10-12T23:33:57.815Z,15.73
2018-10-12T23:36:27.066Z,14.97
2018-10-12T23:38:56.592Z,17.77
2018-10-12T23:41:26.018Z,17.57
2018-10-12T23:43:55.062Z,13.70
2018-10-12T23:46:24.255Z,19.17
2018-10-12T23:48:53.659Z,17.30
2018-10-12T23:51:22.564Z,17.93
2018-10-12T23:53:51.431Z,15.37
2018-10-12T23:56:20.843Z,17.53
2018-10-12T23:58:50.216Z,16.70
